Terminal Aerodrome Forecast
Issued by NWS

Home | Current Version | Previous Version | Text Only | Print | Product List | Glossary On
Versions: 1 2 3 4 5 6 7 8 9 10 11 12 13 14 15
442
FTUS44 KOHX 240525
TAFCKV
TAF
KCKV 240525Z 2406/2506 28003KT P6SM BKN120 BKN250
     FM240800 28003KT P6SM VCSH OVC050
     FM241000 29004KT 4SM -SHRA BR OVC015
     FM241700 29010KT 5SM -SHRA OVC025
     FM242000 29009KT 5SM -TSRA OVC050CB
     FM250200 28006KT P6SM VCSH BKN050 BKN100=

USA.gov is the U.S. government's official web portal to all federal, state and local government web resources and services.